Leroy, Texas
Current Conditions -  °F | °C
As of 10:51 AM on Wednesday 26 Nov 2014 (Local Time) from KACT Reporting Station
Clear Clear  
Wind Chill: 63°   Ceiling: Unl
Heat Index: 63°   Visibility: 10mi
Dew Point: 27°   Wind: 15mph
Humidity: 26%   Direction: 280°W
Pressure: 30.18"   Gusts: NA
Location:  31.73°N, 97.02°W
Report Text: KACT 261651Z 28013KT 10SM CLR 17/M03 A3018 RMK AO2 SLP218 T01721028
Loading
Personal Weather Stations






























Interactive Weather Map New forecast layout! Learn more

10-Day Weather Forecast

Advertisements
Track Severe Weather on mobile